BCS2402 EPWA-LSZH
Flight info
| Callsign | BCS2402 |
|---|---|
| Flight time | 1h 34m |
| Altitude | 34000 |
| Route | SOXER DCT VAMPU N869 AGALU DCT TOMTI DCT ASTEL DCT OKG DCT AMOSA N869 TEDGO T724 RILAX |
| Aircraft | A306/H-SDE3FGHIRWY/LB1 |
Departure
| Time | 2026-05-07 08:57 |
|---|---|
| Airport | Warsaw Chopin Airport (EPWA) |
Arrival
| Time | 2026-05-07 10:31 |
|---|---|
| Airport | Zürich Airport (LSZH) |
| Time | Latitude | Longitude | Altitude | Speed | Heading |
|---|---|---|---|---|---|
| 2026-05-07 08:31 | 52.15574 | 20.98139 | 342 ft | 0 kts | 60° |
| 2026-05-07 08:47 | 52.15573 | 20.98136 | 342 ft | 1 kts | 60° |
| 2026-05-07 08:47 | 52.15566 | 20.98115 | 342 ft | 2 kts | 60° |
| 2026-05-07 08:47 | 52.15558 | 20.98094 | 342 ft | 2 kts | 60° |
| 2026-05-07 08:47 | 52.15554 | 20.98081 | 342 ft | 2 kts | 58° |
| 2026-05-07 08:48 | 52.15544 | 20.98062 | 342 ft | 2 kts | 36° |
| 2026-05-07 08:48 | 52.15531 | 20.98051 | 342 ft | 2 kts | 18° |
| 2026-05-07 08:48 | 52.15516 | 20.98046 | 343 ft | 2 kts | 0° |
| 2026-05-07 08:48 | 52.15501 | 20.98049 | 343 ft | 2 kts | 342° |
| 2026-05-07 08:49 | 52.15493 | 20.98054 | 343 ft | 0 kts | 331° |
| 2026-05-07 08:49 | 52.15490 | 20.98056 | 343 ft | 0 kts | 331° |
| 2026-05-07 08:54 | 52.15494 | 20.98053 | 343 ft | 3 kts | 330° |
| 2026-05-07 08:54 | 52.15540 | 20.98011 | 342 ft | 11 kts | 330° |
| 2026-05-07 08:54 | 52.15633 | 20.98025 | 341 ft | 17 kts | 24° |
| 2026-05-07 08:55 | 52.15766 | 20.98124 | 340 ft | 24 kts | 24° |
| 2026-05-07 08:55 | 52.15936 | 20.98248 | 339 ft | 21 kts | 25° |
| 2026-05-07 08:55 | 52.16063 | 20.98345 | 339 ft | 10 kts | 15° |
| 2026-05-07 08:55 | 52.16137 | 20.98270 | 338 ft | 16 kts | 294° |
| 2026-05-07 08:56 | 52.16204 | 20.98034 | 339 ft | 34 kts | 295° |
| 2026-05-07 08:56 | 52.16365 | 20.97458 | 341 ft | 83 kts | 294° |
| 2026-05-07 08:56 | 52.16703 | 20.96251 | 342 ft | 148 kts | 295° |
| 2026-05-07 08:56 | 52.17174 | 20.94540 | 689 ft | 171 kts | 292° |
| 2026-05-07 08:57 | 52.17624 | 20.92740 | 1233 ft | 180 kts | 294° |
| 2026-05-07 08:57 | 52.18151 | 20.90835 | 1766 ft | 190 kts | 291° |
| 2026-05-07 08:57 | 52.18258 | 20.88553 | 1918 ft | 216 kts | 266° |
| 2026-05-07 08:57 | 52.18108 | 20.85992 | 2268 ft | 238 kts | 265° |
| 2026-05-07 08:58 | 52.18155 | 20.83556 | 2772 ft | 249 kts | 278° |
| 2026-05-07 08:58 | 52.18326 | 20.81751 | 3280 ft | 253 kts | 280° |
| 2026-05-07 08:58 | 52.18656 | 20.78941 | 4120 ft | 256 kts | 282° |
| 2026-05-07 08:58 | 52.19020 | 20.76111 | 4981 ft | 258 kts | 282° |
| 2026-05-07 08:59 | 52.19403 | 20.73256 | 5814 ft | 261 kts | 282° |
| 2026-05-07 08:59 | 52.19474 | 20.70337 | 6611 ft | 262 kts | 260° |
| 2026-05-07 08:59 | 52.19027 | 20.67463 | 7398 ft | 265 kts | 253° |
| 2026-05-07 08:59 | 52.18454 | 20.64600 | 8161 ft | 269 kts | 252° |
| 2026-05-07 09:00 | 52.17844 | 20.61732 | 8932 ft | 271 kts | 251° |
| 2026-05-07 09:00 | 52.17218 | 20.58849 | 9678 ft | 273 kts | 251° |
| 2026-05-07 09:00 | 52.16577 | 20.55926 | 10359 ft | 279 kts | 250° |
| 2026-05-07 09:00 | 52.15900 | 20.52854 | 10659 ft | 299 kts | 250° |
| 2026-05-07 09:01 | 52.15205 | 20.49546 | 10909 ft | 320 kts | 252° |
| 2026-05-07 09:01 | 52.14505 | 20.45983 | 11151 ft | 341 kts | 252° |
| 2026-05-07 09:01 | 52.13777 | 20.42184 | 11437 ft | 361 kts | 252° |
| 2026-05-07 09:01 | 52.13026 | 20.38234 | 12030 ft | 370 kts | 252° |
| 2026-05-07 09:02 | 52.12261 | 20.34213 | 12802 ft | 374 kts | 252° |
| 2026-05-07 09:02 | 52.11491 | 20.30177 | 13606 ft | 376 kts | 252° |
| 2026-05-07 09:02 | 52.10715 | 20.26122 | 14342 ft | 378 kts | 252° |
| 2026-05-07 09:02 | 52.09930 | 20.22025 | 15010 ft | 382 kts | 252° |
| 2026-05-07 09:03 | 52.09137 | 20.17898 | 15674 ft | 386 kts | 252° |
| 2026-05-07 09:03 | 52.08333 | 20.13724 | 16331 ft | 389 kts | 252° |
| 2026-05-07 09:03 | 52.07523 | 20.09524 | 16973 ft | 393 kts | 252° |
| 2026-05-07 09:03 | 52.06704 | 20.05287 | 17596 ft | 396 kts | 252° |
| 2026-05-07 09:04 | 52.05875 | 20.01007 | 18193 ft | 400 kts | 253° |
| 2026-05-07 09:04 | 52.05037 | 19.96694 | 18776 ft | 403 kts | 253° |
| 2026-05-07 09:04 | 52.04157 | 19.92358 | 19349 ft | 407 kts | 252° |
| 2026-05-07 09:04 | 52.03223 | 19.88015 | 19918 ft | 411 kts | 251° |
| 2026-05-07 09:05 | 52.02267 | 19.83635 | 20498 ft | 414 kts | 251° |
| 2026-05-07 09:05 | 52.01307 | 19.79227 | 21081 ft | 417 kts | 251° |
| 2026-05-07 09:05 | 52.00340 | 19.74777 | 21637 ft | 420 kts | 252° |
| 2026-05-07 09:05 | 51.99368 | 19.70299 | 22151 ft | 424 kts | 252° |
| 2026-05-07 09:06 | 51.98385 | 19.65778 | 22648 ft | 428 kts | 252° |
| 2026-05-07 09:06 | 51.97391 | 19.61218 | 23148 ft | 431 kts | 252° |
| 2026-05-07 09:06 | 51.96389 | 19.56630 | 23645 ft | 435 kts | 252° |
| 2026-05-07 09:06 | 51.95378 | 19.52014 | 24134 ft | 438 kts | 252° |
| 2026-05-07 09:07 | 51.94356 | 19.47353 | 24609 ft | 441 kts | 252° |
| 2026-05-07 09:07 | 51.93323 | 19.42657 | 25086 ft | 446 kts | 252° |
| 2026-05-07 09:07 | 51.92278 | 19.37918 | 25612 ft | 450 kts | 252° |
| 2026-05-07 09:07 | 51.91224 | 19.33150 | 26127 ft | 452 kts | 252° |
| 2026-05-07 09:08 | 51.90161 | 19.28353 | 26615 ft | 453 kts | 252° |
| 2026-05-07 09:08 | 51.89095 | 19.23558 | 27048 ft | 455 kts | 252° |
| 2026-05-07 09:08 | 51.88019 | 19.18722 | 27389 ft | 458 kts | 252° |
| 2026-05-07 09:08 | 51.86939 | 19.13884 | 27717 ft | 458 kts | 252° |
| 2026-05-07 09:09 | 51.85854 | 19.09066 | 28156 ft | 456 kts | 252° |
| 2026-05-07 09:09 | 51.84787 | 19.04264 | 28546 ft | 454 kts | 252° |
| 2026-05-07 09:09 | 51.83736 | 18.99476 | 28895 ft | 452 kts | 252° |
| 2026-05-07 09:09 | 51.82693 | 18.94694 | 29225 ft | 451 kts | 252° |
| 2026-05-07 09:10 | 51.81651 | 18.89929 | 29524 ft | 451 kts | 253° |
| 2026-05-07 09:10 | 51.80602 | 18.85165 | 29806 ft | 450 kts | 252° |
| 2026-05-07 09:10 | 51.79550 | 18.80416 | 30087 ft | 450 kts | 253° |
| 2026-05-07 09:10 | 51.78497 | 18.75663 | 30360 ft | 450 kts | 253° |
| 2026-05-07 09:11 | 51.77450 | 18.70930 | 30617 ft | 449 kts | 253° |
| 2026-05-07 09:11 | 51.76401 | 18.66193 | 30830 ft | 448 kts | 253° |
| 2026-05-07 09:11 | 51.75353 | 18.61472 | 31012 ft | 448 kts | 253° |
| 2026-05-07 09:11 | 51.74303 | 18.56751 | 31177 ft | 448 kts | 253° |
| 2026-05-07 09:12 | 51.73253 | 18.52039 | 31336 ft | 448 kts | 253° |
| 2026-05-07 09:12 | 51.72199 | 18.47325 | 31488 ft | 448 kts | 253° |
| 2026-05-07 09:12 | 51.71145 | 18.42619 | 31637 ft | 447 kts | 253° |
| 2026-05-07 09:12 | 51.70087 | 18.37909 | 31774 ft | 447 kts | 253° |
| 2026-05-07 09:13 | 51.69029 | 18.33206 | 31909 ft | 447 kts | 252° |
| 2026-05-07 09:13 | 51.67967 | 18.28504 | 32057 ft | 447 kts | 252° |
| 2026-05-07 09:13 | 51.66905 | 18.23809 | 32202 ft | 446 kts | 252° |
| 2026-05-07 09:13 | 51.65843 | 18.19127 | 32340 ft | 446 kts | 252° |
| 2026-05-07 09:14 | 51.64780 | 18.14443 | 32469 ft | 446 kts | 253° |
| 2026-05-07 09:14 | 51.63716 | 18.09767 | 32593 ft | 445 kts | 253° |
| 2026-05-07 09:14 | 51.62651 | 18.05098 | 32716 ft | 445 kts | 253° |
| 2026-05-07 09:14 | 51.61585 | 18.00435 | 32840 ft | 445 kts | 253° |
| 2026-05-07 09:15 | 51.60520 | 17.95786 | 32963 ft | 444 kts | 253° |
| 2026-05-07 09:15 | 51.59453 | 17.91138 | 33085 ft | 444 kts | 253° |
| 2026-05-07 09:15 | 51.58370 | 17.86511 | 33208 ft | 443 kts | 252° |
| 2026-05-07 09:15 | 51.57278 | 17.81892 | 33330 ft | 443 kts | 252° |
| 2026-05-07 09:16 | 51.56195 | 17.77267 | 33452 ft | 442 kts | 253° |
| 2026-05-07 09:16 | 51.55123 | 17.72648 | 33573 ft | 441 kts | 253° |
| 2026-05-07 09:16 | 51.54058 | 17.68043 | 33695 ft | 441 kts | 253° |
| 2026-05-07 09:16 | 51.52992 | 17.63447 | 33815 ft | 440 kts | 253° |
| 2026-05-07 09:17 | 51.51924 | 17.58857 | 33936 ft | 439 kts | 253° |
| 2026-05-07 09:17 | 51.50856 | 17.54280 | 33986 ft | 438 kts | 253° |
| 2026-05-07 09:17 | 51.48719 | 17.45153 | 33992 ft | 438 kts | 253° |
| 2026-05-07 09:18 | 51.46565 | 17.36040 | 33993 ft | 438 kts | 253° |
| 2026-05-07 09:18 | 51.44390 | 17.26928 | 33993 ft | 438 kts | 252° |
| 2026-05-07 09:19 | 51.42229 | 17.17824 | 33995 ft | 438 kts | 252° |
| 2026-05-07 09:19 | 51.40062 | 17.08724 | 33998 ft | 438 kts | 252° |
| 2026-05-07 09:20 | 51.37886 | 16.99631 | 34000 ft | 438 kts | 253° |
| 2026-05-07 09:20 | 51.35718 | 16.90615 | 34002 ft | 432 kts | 253° |
| 2026-05-07 09:21 | 51.33574 | 16.81726 | 34002 ft | 427 kts | 255° |
| 2026-05-07 09:21 | 51.31446 | 16.72936 | 34001 ft | 424 kts | 255° |
| 2026-05-07 09:22 | 51.29315 | 16.64164 | 34000 ft | 424 kts | 255° |
| 2026-05-07 09:22 | 51.27173 | 16.55391 | 33999 ft | 425 kts | 255° |
| 2026-05-07 09:23 | 51.25024 | 16.46627 | 33978 ft | 425 kts | 255° |
| 2026-05-07 09:23 | 51.22867 | 16.37860 | 33942 ft | 426 kts | 255° |
| 2026-05-07 09:24 | 51.20697 | 16.29085 | 33944 ft | 426 kts | 254° |
| 2026-05-07 09:24 | 51.18518 | 16.20313 | 33942 ft | 426 kts | 254° |
| 2026-05-07 09:25 | 51.16334 | 16.11545 | 33939 ft | 427 kts | 254° |
| 2026-05-07 09:25 | 51.14143 | 16.02783 | 33946 ft | 426 kts | 254° |
| 2026-05-07 09:26 | 51.11948 | 15.94039 | 33955 ft | 426 kts | 254° |
| 2026-05-07 09:26 | 51.09746 | 15.85299 | 33958 ft | 426 kts | 254° |
| 2026-05-07 09:27 | 51.07536 | 15.76565 | 33953 ft | 427 kts | 254° |
| 2026-05-07 09:28 | 51.04208 | 15.63473 | 33942 ft | 427 kts | 254° |
| 2026-05-07 09:28 | 51.01982 | 15.54764 | 33936 ft | 425 kts | 255° |
| 2026-05-07 09:29 | 50.99762 | 15.46110 | 33938 ft | 423 kts | 256° |
| 2026-05-07 09:29 | 50.97549 | 15.37509 | 33939 ft | 421 kts | 256° |
| 2026-05-07 09:30 | 50.95379 | 15.29054 | 33950 ft | 419 kts | 257° |
| 2026-05-07 09:30 | 50.93463 | 15.20392 | 33957 ft | 415 kts | 261° |
| 2026-05-07 09:31 | 50.91723 | 15.11731 | 33956 ft | 413 kts | 262° |
| 2026-05-07 09:31 | 50.89994 | 15.03214 | 33954 ft | 410 kts | 263° |
| 2026-05-07 09:32 | 50.88222 | 14.94573 | 33903 ft | 406 kts | 263° |
| 2026-05-07 09:32 | 50.86420 | 14.86111 | 33898 ft | 410 kts | 259° |
| 2026-05-07 09:33 | 50.83981 | 14.77879 | 33896 ft | 417 kts | 255° |
| 2026-05-07 09:33 | 50.81381 | 14.69708 | 33892 ft | 417 kts | 255° |
| 2026-05-07 09:34 | 50.78822 | 14.61520 | 33889 ft | 416 kts | 255° |
| 2026-05-07 09:34 | 50.76268 | 14.53341 | 33886 ft | 416 kts | 255° |
| 2026-05-07 09:35 | 50.73707 | 14.45176 | 33882 ft | 416 kts | 255° |
| 2026-05-07 09:35 | 50.71138 | 14.37015 | 33880 ft | 416 kts | 255° |
| 2026-05-07 09:36 | 50.68560 | 14.28863 | 33901 ft | 416 kts | 255° |
| 2026-05-07 09:36 | 50.65973 | 14.20710 | 33913 ft | 417 kts | 255° |
| 2026-05-07 09:37 | 50.63378 | 14.12547 | 33913 ft | 417 kts | 255° |
| 2026-05-07 09:37 | 50.60779 | 14.04401 | 33928 ft | 417 kts | 255° |
| 2026-05-07 09:38 | 50.58171 | 13.96251 | 33939 ft | 418 kts | 255° |
| 2026-05-07 09:38 | 50.55556 | 13.88105 | 33944 ft | 418 kts | 255° |
| 2026-05-07 09:39 | 50.52934 | 13.79965 | 33955 ft | 418 kts | 255° |
| 2026-05-07 09:39 | 50.50306 | 13.71833 | 33965 ft | 418 kts | 255° |
| 2026-05-07 09:40 | 50.47670 | 13.63702 | 33966 ft | 419 kts | 255° |
| 2026-05-07 09:40 | 50.45030 | 13.55588 | 33946 ft | 419 kts | 255° |
| 2026-05-07 09:41 | 50.42384 | 13.47480 | 33939 ft | 418 kts | 255° |
| 2026-05-07 09:41 | 50.39736 | 13.39391 | 33937 ft | 418 kts | 255° |
| 2026-05-07 09:42 | 50.37078 | 13.31304 | 33947 ft | 419 kts | 254° |
| 2026-05-07 09:42 | 50.34404 | 13.23204 | 33946 ft | 419 kts | 254° |
| 2026-05-07 09:43 | 50.31728 | 13.15118 | 33946 ft | 418 kts | 253° |
| 2026-05-07 09:43 | 50.29076 | 13.07132 | 33942 ft | 412 kts | 253° |
| 2026-05-07 09:44 | 50.26455 | 12.99253 | 33939 ft | 407 kts | 252° |
| 2026-05-07 09:44 | 50.23857 | 12.91465 | 33938 ft | 404 kts | 252° |
| 2026-05-07 09:45 | 50.21256 | 12.83686 | 33939 ft | 405 kts | 252° |
| 2026-05-07 09:45 | 50.18647 | 12.75916 | 33942 ft | 406 kts | 252° |
| 2026-05-07 09:46 | 50.16027 | 12.68141 | 33941 ft | 406 kts | 252° |
| 2026-05-07 09:46 | 50.13404 | 12.60377 | 33940 ft | 406 kts | 252° |
| 2026-05-07 09:47 | 50.10774 | 12.52617 | 33938 ft | 405 kts | 252° |
| 2026-05-07 09:47 | 50.08139 | 12.44866 | 33937 ft | 406 kts | 252° |
| 2026-05-07 09:48 | 50.05438 | 12.37167 | 33939 ft | 407 kts | 251° |
| 2026-05-07 09:48 | 50.02753 | 12.29457 | 33955 ft | 406 kts | 252° |
| 2026-05-07 09:49 | 50.00117 | 12.21690 | 33963 ft | 407 kts | 252° |
| 2026-05-07 09:49 | 49.97485 | 12.13942 | 33964 ft | 406 kts | 252° |
| 2026-05-07 09:50 | 49.94850 | 12.06216 | 33964 ft | 406 kts | 252° |
| 2026-05-07 09:50 | 49.92206 | 11.98489 | 33963 ft | 406 kts | 252° |
| 2026-05-07 09:51 | 49.89612 | 11.90929 | 33959 ft | 406 kts | 252° |
| 2026-05-07 09:51 | 49.86952 | 11.83204 | 33933 ft | 406 kts | 252° |
| 2026-05-07 09:52 | 49.84298 | 11.75516 | 33931 ft | 406 kts | 252° |
| 2026-05-07 09:52 | 49.81635 | 11.67825 | 33928 ft | 406 kts | 252° |
| 2026-05-07 09:53 | 49.78966 | 11.60141 | 33925 ft | 406 kts | 252° |
| 2026-05-07 09:53 | 49.76287 | 11.52452 | 33921 ft | 406 kts | 252° |
| 2026-05-07 09:54 | 49.73604 | 11.44773 | 33921 ft | 406 kts | 252° |
| 2026-05-07 09:54 | 49.70916 | 11.37104 | 33926 ft | 406 kts | 252° |
| 2026-05-07 09:55 | 49.68326 | 11.29746 | 33959 ft | 407 kts | 251° |
| 2026-05-07 09:55 | 49.65615 | 11.22072 | 33990 ft | 407 kts | 251° |
| 2026-05-07 09:56 | 49.62902 | 11.14399 | 33991 ft | 408 kts | 251° |
| 2026-05-07 09:56 | 49.60190 | 11.06753 | 33990 ft | 407 kts | 251° |
| 2026-05-07 09:57 | 49.57469 | 10.99106 | 33991 ft | 406 kts | 251° |
| 2026-05-07 09:57 | 49.54774 | 10.91558 | 33993 ft | 401 kts | 251° |
| 2026-05-07 09:58 | 49.52107 | 10.84106 | 33995 ft | 396 kts | 250° |
| 2026-05-07 09:58 | 49.48706 | 10.77281 | 33997 ft | 412 kts | 236° |
| 2026-05-07 09:59 | 49.44616 | 10.71077 | 33998 ft | 413 kts | 235° |
| 2026-05-07 09:59 | 49.40599 | 10.64809 | 33998 ft | 411 kts | 237° |
| 2026-05-07 10:00 | 49.36674 | 10.58452 | 33998 ft | 411 kts | 237° |
| 2026-05-07 10:00 | 49.32697 | 10.52156 | 33996 ft | 413 kts | 236° |
| 2026-05-07 10:01 | 49.28632 | 10.45943 | 33995 ft | 413 kts | 236° |
| 2026-05-07 10:01 | 49.24577 | 10.39755 | 33992 ft | 413 kts | 236° |
| 2026-05-07 10:02 | 49.20631 | 10.33670 | 33998 ft | 413 kts | 236° |
| 2026-05-07 10:02 | 49.16599 | 10.27417 | 34012 ft | 414 kts | 236° |
| 2026-05-07 10:03 | 49.12741 | 10.21008 | 34015 ft | 407 kts | 240° |
| 2026-05-07 10:03 | 49.09225 | 10.14287 | 34015 ft | 406 kts | 242° |
| 2026-05-07 10:04 | 49.05694 | 10.07532 | 34020 ft | 410 kts | 241° |
| 2026-05-07 10:04 | 49.02105 | 10.00743 | 34022 ft | 414 kts | 240° |
| 2026-05-07 10:05 | 48.98472 | 9.93893 | 34021 ft | 419 kts | 240° |
| 2026-05-07 10:05 | 48.94796 | 9.86978 | 34023 ft | 424 kts | 240° |
| 2026-05-07 10:06 | 48.91079 | 9.80006 | 34023 ft | 427 kts | 240° |
| 2026-05-07 10:06 | 48.87446 | 9.73232 | 34002 ft | 428 kts | 240° |
| 2026-05-07 10:07 | 48.83679 | 9.66249 | 34005 ft | 429 kts | 240° |
| 2026-05-07 10:07 | 48.79911 | 9.59238 | 34004 ft | 429 kts | 240° |
| 2026-05-07 10:08 | 48.76142 | 9.52241 | 34002 ft | 429 kts | 240° |
| 2026-05-07 10:08 | 48.72360 | 9.45246 | 34000 ft | 430 kts | 240° |
| 2026-05-07 10:09 | 48.68568 | 9.38269 | 33998 ft | 431 kts | 240° |
| 2026-05-07 10:09 | 48.64940 | 9.31591 | 34014 ft | 431 kts | 239° |
| 2026-05-07 10:10 | 48.60928 | 9.24783 | 34022 ft | 443 kts | 230° |
| 2026-05-07 10:10 | 48.55952 | 9.19125 | 34021 ft | 452 kts | 224° |
| 2026-05-07 10:11 | 48.50856 | 9.13629 | 33994 ft | 451 kts | 225° |
| 2026-05-07 10:11 | 48.48347 | 9.10840 | 33851 ft | 446 kts | 226° |
| 2026-05-07 10:11 | 48.45880 | 9.08083 | 33566 ft | 440 kts | 226° |
| 2026-05-07 10:11 | 48.43447 | 9.05365 | 33101 ft | 436 kts | 226° |
| 2026-05-07 10:12 | 48.41027 | 9.02665 | 32578 ft | 433 kts | 225° |
| 2026-05-07 10:12 | 48.38627 | 8.99994 | 32039 ft | 430 kts | 225° |
| 2026-05-07 10:12 | 48.36230 | 8.97332 | 31482 ft | 428 kts | 225° |
| 2026-05-07 10:12 | 48.33845 | 8.94685 | 30888 ft | 427 kts | 225° |
| 2026-05-07 10:13 | 48.31461 | 8.92046 | 30288 ft | 427 kts | 224° |
| 2026-05-07 10:13 | 48.29085 | 8.89419 | 29687 ft | 426 kts | 224° |
| 2026-05-07 10:13 | 48.26717 | 8.86793 | 29071 ft | 425 kts | 224° |
| 2026-05-07 10:13 | 48.24346 | 8.84157 | 28415 ft | 426 kts | 224° |
| 2026-05-07 10:14 | 48.21976 | 8.81520 | 27733 ft | 426 kts | 224° |
| 2026-05-07 10:14 | 48.19600 | 8.78880 | 27050 ft | 427 kts | 223° |
| 2026-05-07 10:14 | 48.17220 | 8.76248 | 26383 ft | 428 kts | 223° |
| 2026-05-07 10:14 | 48.14825 | 8.73630 | 25751 ft | 427 kts | 223° |
| 2026-05-07 10:15 | 48.12436 | 8.71031 | 25142 ft | 425 kts | 223° |
| 2026-05-07 10:15 | 48.10057 | 8.68444 | 24561 ft | 423 kts | 222° |
| 2026-05-07 10:15 | 48.07680 | 8.65859 | 23998 ft | 421 kts | 222° |
| 2026-05-07 10:15 | 48.05332 | 8.63306 | 23454 ft | 418 kts | 222° |
| 2026-05-07 10:16 | 48.02995 | 8.60767 | 22919 ft | 416 kts | 222° |
| 2026-05-07 10:16 | 48.00671 | 8.58246 | 22391 ft | 413 kts | 222° |
| 2026-05-07 10:16 | 47.98292 | 8.55899 | 21837 ft | 417 kts | 212° |
| 2026-05-07 10:16 | 47.95528 | 8.54515 | 21303 ft | 424 kts | 200° |
| 2026-05-07 10:17 | 47.92559 | 8.54261 | 20718 ft | 439 kts | 179° |
| 2026-05-07 10:17 | 47.89933 | 8.55393 | 20236 ft | 449 kts | 162° |
| 2026-05-07 10:17 | 47.87082 | 8.57813 | 19722 ft | 452 kts | 152° |
| 2026-05-07 10:17 | 47.84512 | 8.60483 | 19241 ft | 449 kts | 150° |
| 2026-05-07 10:18 | 47.81973 | 8.63143 | 18753 ft | 444 kts | 151° |
| 2026-05-07 10:18 | 47.79437 | 8.65694 | 18266 ft | 439 kts | 152° |
| 2026-05-07 10:18 | 47.76901 | 8.68162 | 17777 ft | 435 kts | 153° |
| 2026-05-07 10:18 | 47.74381 | 8.70583 | 17288 ft | 431 kts | 153° |
| 2026-05-07 10:19 | 47.71839 | 8.72866 | 16775 ft | 421 kts | 161° |
| 2026-05-07 10:19 | 47.69087 | 8.73861 | 16213 ft | 401 kts | 184° |
| 2026-05-07 10:19 | 47.66426 | 8.73274 | 15684 ft | 383 kts | 202° |
| 2026-05-07 10:19 | 47.63955 | 8.71940 | 15194 ft | 375 kts | 208° |
| 2026-05-07 10:20 | 47.61768 | 8.69999 | 14635 ft | 363 kts | 225° |
| 2026-05-07 10:20 | 47.60187 | 8.67194 | 14048 ft | 353 kts | 244° |
| 2026-05-07 10:20 | 47.59546 | 8.63749 | 13449 ft | 348 kts | 267° |
| 2026-05-07 10:20 | 47.59891 | 8.60223 | 12864 ft | 350 kts | 287° |
| 2026-05-07 10:21 | 47.61026 | 8.57041 | 12288 ft | 353 kts | 301° |
| 2026-05-07 10:21 | 47.62592 | 8.54236 | 11728 ft | 355 kts | 309° |
| 2026-05-07 10:21 | 47.64334 | 8.51662 | 11242 ft | 352 kts | 313° |
| 2026-05-07 10:21 | 47.66103 | 8.49221 | 10944 ft | 341 kts | 314° |
| 2026-05-07 10:22 | 47.67783 | 8.46941 | 10656 ft | 316 kts | 314° |
| 2026-05-07 10:22 | 47.69345 | 8.44817 | 10386 ft | 293 kts | 314° |
| 2026-05-07 10:22 | 47.70788 | 8.42842 | 10118 ft | 273 kts | 314° |
| 2026-05-07 10:22 | 47.72138 | 8.40988 | 9849 ft | 256 kts | 314° |
| 2026-05-07 10:23 | 47.73291 | 8.39125 | 9576 ft | 235 kts | 294° |
| 2026-05-07 10:23 | 47.73521 | 8.36883 | 9370 ft | 218 kts | 261° |
| 2026-05-07 10:23 | 47.73080 | 8.34872 | 9232 ft | 226 kts | 250° |
| 2026-05-07 10:23 | 47.72365 | 8.32794 | 9192 ft | 213 kts | 244° |
| 2026-05-07 10:24 | 47.71581 | 8.30997 | 8936 ft | 201 kts | 240° |
| 2026-05-07 10:24 | 47.70902 | 8.29612 | 8711 ft | 192 kts | 238° |
| 2026-05-07 10:24 | 47.70083 | 8.28078 | 8286 ft | 193 kts | 233° |
| 2026-05-07 10:24 | 47.68869 | 8.27209 | 7773 ft | 206 kts | 188° |
| 2026-05-07 10:25 | 47.67480 | 8.27721 | 7319 ft | 210 kts | 152° |
| 2026-05-07 10:25 | 47.66302 | 8.28963 | 6921 ft | 208 kts | 142° |
| 2026-05-07 10:25 | 47.65218 | 8.30343 | 6524 ft | 204 kts | 139° |
| 2026-05-07 10:25 | 47.64164 | 8.31755 | 6059 ft | 205 kts | 137° |
| 2026-05-07 10:26 | 47.63117 | 8.33181 | 5576 ft | 208 kts | 137° |
| 2026-05-07 10:26 | 47.62061 | 8.34629 | 5247 ft | 211 kts | 136° |
| 2026-05-07 10:26 | 47.60957 | 8.36147 | 4948 ft | 216 kts | 136° |
| 2026-05-07 10:26 | 47.59904 | 8.37594 | 4622 ft | 197 kts | 136° |
| 2026-05-07 10:27 | 47.58938 | 8.38916 | 4340 ft | 181 kts | 136° |
| 2026-05-07 10:27 | 47.58048 | 8.40130 | 4113 ft | 167 kts | 136° |
| 2026-05-07 10:27 | 47.57224 | 8.41264 | 3879 ft | 159 kts | 135° |
| 2026-05-07 10:27 | 47.56429 | 8.42362 | 3655 ft | 154 kts | 135° |
| 2026-05-07 10:28 | 47.55652 | 8.43431 | 3446 ft | 152 kts | 135° |
| 2026-05-07 10:28 | 47.54884 | 8.44485 | 3242 ft | 150 kts | 136° |
| 2026-05-07 10:28 | 47.54122 | 8.45531 | 3040 ft | 149 kts | 136° |
| 2026-05-07 10:28 | 47.53366 | 8.46565 | 2841 ft | 148 kts | 136° |
| 2026-05-07 10:29 | 47.52614 | 8.47594 | 2639 ft | 147 kts | 136° |
| 2026-05-07 10:29 | 47.51869 | 8.48612 | 2441 ft | 146 kts | 136° |
| 2026-05-07 10:29 | 47.51128 | 8.49625 | 2243 ft | 145 kts | 136° |
| 2026-05-07 10:30 | 47.49661 | 8.51628 | 1856 ft | 143 kts | 136° |
| 2026-05-07 10:30 | 47.48932 | 8.52622 | 1665 ft | 142 kts | 136° |
| 2026-05-07 10:30 | 47.48210 | 8.53607 | 1470 ft | 141 kts | 136° |
| 2026-05-07 10:30 | 47.47523 | 8.54553 | 1429 ft | 114 kts | 137° |
| 2026-05-07 10:31 | 47.47107 | 8.55101 | 1429 ft | 47 kts | 133° |
| 2026-05-07 10:31 | 47.46968 | 8.55301 | 1429 ft | 11 kts | 136° |
| 2026-05-07 10:31 | 47.46931 | 8.55352 | 1429 ft | 9 kts | 136° |
| 2026-05-07 10:31 | 47.46870 | 8.55437 | 1429 ft | 15 kts | 137° |
| 2026-05-07 10:32 | 47.46774 | 8.55569 | 1429 ft | 22 kts | 137° |
| 2026-05-07 10:32 | 47.46609 | 8.55675 | 1429 ft | 29 kts | 167° |
| 2026-05-07 10:32 | 47.46403 | 8.55744 | 1429 ft | 26 kts | 161° |
| 2026-05-07 10:32 | 47.46266 | 8.55914 | 1429 ft | 28 kts | 137° |
| 2026-05-07 10:33 | 47.46102 | 8.56138 | 1429 ft | 35 kts | 137° |
| 2026-05-07 10:33 | 47.45931 | 8.56372 | 1429 ft | 30 kts | 137° |
| 2026-05-07 10:33 | 47.45802 | 8.56569 | 1429 ft | 21 kts | 105° |
| 2026-05-07 10:33 | 47.45782 | 8.56812 | 1429 ft | 27 kts | 96° |
| 2026-05-07 10:34 | 47.45752 | 8.57016 | 1429 ft | 11 kts | 149° |
| 2026-05-07 10:34 | 47.45660 | 8.57032 | 1429 ft | 16 kts | 188° |
| 2026-05-07 10:34 | 47.45534 | 8.56997 | 1429 ft | 15 kts | 205° |